createdAt,value
2016-06-11T00:00:42.667Z,0
2016-06-11T00:01:42.701Z,0
2016-06-11T00:02:42.751Z,0
2016-06-11T00:03:42.754Z,0
2016-06-11T00:04:42.866Z,0
2016-06-11T00:05:42.885Z,0
2016-06-11T00:06:42.872Z,0
2016-06-11T00:07:42.939Z,0
2016-06-11T00:08:42.988Z,0
2016-06-11T00:09:43.039Z,0
2016-06-11T00:10:43.072Z,0
2016-06-11T00:11:43.106Z,0
2016-06-11T00:12:43.220Z,0
2016-06-11T00:13:43.191Z,0
2016-06-11T00:14:43.382Z,0
2016-06-11T00:15:43.354Z,0
2016-06-11T00:16:43.371Z,0
2016-06-11T00:17:43.344Z,0
2016-06-11T00:18:43.425Z,0
2016-06-11T00:19:43.444Z,0
2016-06-11T00:20:43.478Z,0
2016-06-11T00:21:43.512Z,0
2016-06-11T00:22:43.563Z,0
2016-06-11T00:23:43.643Z,0
2016-06-11T00:24:43.631Z,0
2016-06-11T00:25:43.697Z,0
2016-06-11T00:26:43.747Z,0
2016-06-11T00:27:43.797Z,0
2016-06-11T00:28:44.050Z,0
2016-06-11T00:29:43.865Z,0
2016-06-11T00:30:43.931Z,0
2016-06-11T00:31:43.965Z,0
2016-06-11T00:32:43.984Z,0
2016-06-11T00:33:44.034Z,0
2016-06-11T00:34:44.162Z,0
2016-06-11T00:35:44.102Z,0
2016-06-11T00:36:43.981Z,0
2016-06-11T00:37:44.280Z,0
2016-06-11T00:38:44.237Z,0
2016-06-11T00:39:44.270Z,0
2016-06-11T00:40:44.306Z,0
2016-06-11T00:41:44.402Z,0
2016-06-11T00:42:44.390Z,0
2016-06-11T00:43:45.455Z,0
2016-06-11T00:44:44.568Z,0
2016-06-11T00:45:44.586Z,0
2016-06-11T00:46:44.574Z,0
2016-06-11T00:47:44.609Z,0
2016-06-11T00:48:44.689Z,0
2016-06-11T00:49:44.958Z,0
2016-06-11T00:50:44.712Z,0
2016-06-11T00:51:44.761Z,0
2016-06-11T00:52:44.873Z,0
2016-06-11T00:53:44.861Z,0
2016-06-11T00:54:44.895Z,0
2016-06-11T00:55:44.977Z,0
2016-06-11T00:56:44.995Z,0
2016-06-11T00:57:45.013Z,0
2016-06-11T00:58:45.439Z,0
2016-06-11T00:59:45.192Z,0
2016-06-11T01:00:45.210Z,0
2016-06-11T01:01:45.166Z,0
2016-06-11T01:02:45.232Z,0
2016-06-11T01:03:45.329Z,0
2016-06-11T01:04:45.317Z,0
2016-06-11T01:05:45.350Z,0
2016-06-11T01:06:45.417Z,0
2016-06-11T01:07:45.466Z,0
2016-06-11T01:08:45.470Z,0
2016-06-11T01:09:45.520Z,0
2016-06-11T01:10:45.616Z,0
2016-06-11T01:11:45.651Z,0
2016-06-11T01:12:45.638Z,0
2016-06-11T01:13:45.532Z,0
2016-06-11T01:14:46.238Z,0
2016-06-11T01:15:45.631Z,0
2016-06-11T01:16:45.806Z,0
2016-06-11T01:17:45.888Z,0
2016-06-11T01:18:45.938Z,0
2016-06-11T01:19:45.925Z,0
2016-06-11T01:20:45.975Z,0
2016-06-11T01:21:46.072Z,0
2016-06-11T01:22:46.059Z,0
2016-06-11T01:23:46.094Z,0
2016-06-11T01:24:46.143Z,0
2016-06-11T01:25:46.240Z,0
2016-06-11T01:26:46.259Z,0
2016-06-11T01:27:46.106Z,0
2016-06-11T01:28:46.343Z,0
2016-06-11T01:29:46.502Z,0
2016-06-11T01:30:46.444Z,0
2016-06-11T01:31:46.446Z,0
2016-06-11T01:32:46.528Z,0
2016-06-11T01:33:46.530Z,0
2016-06-11T01:34:46.549Z,0
2016-06-11T01:35:46.600Z,0
2016-06-11T01:36:46.634Z,0
2016-06-11T01:37:46.684Z,0
2016-06-11T01:38:46.718Z,0
2016-06-11T01:39:46.768Z,0
2016-06-11T01:40:46.818Z,0
2016-06-11T01:41:46.697Z,0
2016-06-11T01:42:46.886Z,0
2016-06-11T01:43:46.967Z,0
2016-06-11T01:44:47.534Z,0
2016-06-11T01:45:47.005Z,0
2016-06-11T01:46:47.118Z,0
2016-06-11T01:47:47.151Z,0
2016-06-11T01:48:47.123Z,0
2016-06-11T01:49:47.174Z,0
2016-06-11T01:50:47.052Z,0
2016-06-11T01:51:47.257Z,0
2016-06-11T01:52:47.308Z,0
2016-06-11T01:53:47.358Z,0
2016-06-11T01:54:47.408Z,0
2016-06-11T01:55:47.411Z,0
2016-06-11T01:56:47.445Z,0
2016-06-11T01:57:47.557Z,0
2016-06-11T01:58:47.560Z,0
2016-06-11T01:59:47.829Z,0
2016-06-11T02:00:47.630Z,0
2016-06-11T02:01:47.725Z,0
2016-06-11T02:02:47.698Z,0
2016-06-11T02:03:47.748Z,0
2016-06-11T02:04:47.814Z,0
2016-06-11T02:05:47.879Z,0
2016-06-11T02:06:47.866Z,0
2016-06-11T02:07:47.916Z,0
2016-06-11T02:08:47.997Z,0
2016-06-11T02:09:47.986Z,0
2016-06-11T02:10:48.051Z,0
2016-06-11T02:11:48.085Z,0
2016-06-11T02:12:48.120Z,0
2016-06-11T02:13:48.170Z,0
2016-06-11T02:14:50.735Z,0
2016-06-11T02:15:48.300Z,0
2016-06-11T02:16:48.319Z,0
2016-06-11T02:17:48.338Z,0
2016-06-11T02:18:48.247Z,0
2016-06-11T02:19:48.422Z,0
2016-06-11T02:20:48.456Z,0
2016-06-11T02:21:48.350Z,0
2016-06-11T02:22:48.525Z,0
2016-06-11T02:23:48.607Z,0
2016-06-11T02:24:48.625Z,0
2016-06-11T02:25:48.659Z,0
2016-06-11T02:26:48.710Z,0
2016-06-11T02:27:48.744Z,0
2016-06-11T02:28:48.777Z,0
2016-06-11T02:29:49.156Z,0
2016-06-11T02:30:48.893Z,0
2016-06-11T02:31:48.897Z,0
2016-06-11T02:32:48.946Z,0
2016-06-11T02:33:49.012Z,0
2016-06-11T02:34:49.046Z,0
2016-06-11T02:35:49.080Z,0
2016-06-11T02:36:49.162Z,0
2016-06-11T02:37:49.211Z,0
2016-06-11T02:38:49.075Z,0
2016-06-11T02:39:49.233Z,0
2016-06-11T02:40:49.158Z,0
2016-06-11T02:41:49.364Z,0
2016-06-11T02:42:49.384Z,0
2016-06-11T02:43:49.418Z,0
2016-06-11T02:44:49.468Z,0
2016-06-11T02:45:49.470Z,0
2016-06-11T02:46:49.521Z,0
2016-06-11T02:47:49.617Z,0
2016-06-11T02:48:49.620Z,0
2016-06-11T02:49:49.655Z,0
2016-06-11T02:50:49.720Z,0
2016-06-11T02:51:49.754Z,0
2016-06-11T02:52:49.805Z,0
2016-06-11T02:53:49.823Z,5
2016-06-11T02:54:49.935Z,5
2016-06-11T02:55:49.971Z,5
2016-06-11T02:56:49.942Z,5
2016-06-11T02:57:50.007Z,5
2016-06-11T02:58:50.026Z,5
2016-06-11T02:59:50.951Z,5
2016-06-11T03:00:50.126Z,10
2016-06-11T03:01:50.207Z,10
2016-06-11T03:02:50.243Z,10
2016-06-11T03:03:50.229Z,10
2016-06-11T03:04:50.279Z,10
2016-06-11T03:05:50.361Z,10
2016-06-11T03:06:50.363Z,10
2016-06-11T03:07:50.413Z,15
2016-06-11T03:08:50.448Z,15
2016-06-11T03:09:50.342Z,15
2016-06-11T03:10:50.517Z,15
2016-06-11T03:11:50.581Z,15
2016-06-11T03:12:50.647Z,15
2016-06-11T03:13:50.651Z,20
2016-06-11T03:14:50.700Z,20
2016-06-11T03:15:50.719Z,20
2016-06-11T03:16:50.816Z,20
2016-06-11T03:17:50.834Z,25
2016-06-11T03:18:50.869Z,25
2016-06-11T03:19:50.982Z,25
2016-06-11T03:20:51.000Z,25
2016-06-11T03:21:50.971Z,30
2016-06-11T03:22:51.038Z,30
2016-06-11T03:23:51.119Z,30
2016-06-11T03:24:50.965Z,30
2016-06-11T03:25:50.984Z,35
2016-06-11T03:26:51.206Z,35
2016-06-11T03:27:51.256Z,35
2016-06-11T03:28:51.259Z,35
2016-06-11T03:29:51.793Z,35
2016-06-11T03:30:51.468Z,40
2016-06-11T03:31:51.237Z,40
2016-06-11T03:32:51.474Z,40
2016-06-11T03:33:51.509Z,40
2016-06-11T03:34:51.544Z,45
2016-06-11T03:35:51.546Z,45
2016-06-11T03:36:51.597Z,45
2016-06-11T03:37:51.646Z,45
2016-06-11T03:38:51.742Z,45
2016-06-11T03:39:51.715Z,45
2016-06-11T03:40:51.780Z,45
2016-06-11T03:41:51.799Z,45
2016-06-11T03:42:51.849Z,45
2016-06-11T03:43:51.883Z,50
2016-06-11T03:44:52.449Z,50
2016-06-11T03:45:52.295Z,50
2016-06-11T03:46:52.002Z,50
2016-06-11T03:47:52.037Z,55
2016-06-11T03:48:52.149Z,55
2016-06-11T03:49:52.183Z,55
2016-06-11T03:50:52.170Z,55
2016-06-11T03:51:52.221Z,55
2016-06-11T03:52:52.333Z,55
2016-06-11T03:53:52.289Z,55
2016-06-11T03:54:52.339Z,55
2016-06-11T03:55:52.420Z,60
2016-06-11T03:56:52.454Z,60
2016-06-11T03:57:52.457Z,60
2016-06-11T03:58:52.524Z,65
2016-06-11T03:59:54.135Z,65
2016-06-11T04:00:52.904Z,65
2016-06-11T04:01:55.251Z,70
2016-06-11T04:02:53.394Z,70
2016-06-11T04:03:55.210Z,75
2016-06-11T04:04:52.744Z,80
2016-06-11T04:05:54.889Z,75
2016-06-11T04:06:55.673Z,75
2016-06-11T04:07:55.503Z,75
2016-06-11T04:08:54.960Z,80
2016-06-11T04:09:55.698Z,80
2016-06-11T04:10:54.966Z,80
2016-06-11T04:11:53.625Z,80
2016-06-11T04:12:53.910Z,85
2016-06-11T04:13:53.866Z,85
2016-06-11T04:14:54.432Z,85
2016-06-11T04:15:54.075Z,90
2016-06-11T04:16:53.859Z,90
2016-06-11T04:17:54.066Z,90
2016-06-11T04:18:54.068Z,95
2016-06-11T04:19:54.165Z,95
2016-06-11T04:20:54.075Z,100
2016-06-11T04:21:54.188Z,100
2016-06-11T04:22:54.331Z,100
2016-06-11T04:23:54.381Z,100
2016-06-11T04:24:54.323Z,105
2016-06-11T04:25:54.387Z,105
2016-06-11T04:26:54.453Z,105
2016-06-11T04:27:54.440Z,105
2016-06-11T04:28:54.475Z,105
2016-06-11T04:29:54.977Z,105
2016-06-11T04:30:55.200Z,105
2016-06-11T04:31:54.609Z,105
2016-06-11T04:32:56.269Z,105
2016-06-11T04:33:55.193Z,105
2016-06-11T04:34:54.821Z,105
2016-06-11T04:35:54.793Z,110
2016-06-11T04:36:54.827Z,110
2016-06-11T04:37:54.877Z,115
2016-06-11T04:38:54.912Z,115
2016-06-11T04:39:56.258Z,115
2016-06-11T04:40:54.308Z,115
2016-06-11T04:41:54.281Z,115
2016-06-11T04:42:54.361Z,115
2016-06-11T04:43:54.458Z,115
2016-06-11T04:44:54.649Z,115
2016-06-11T04:45:54.854Z,110
2016-06-11T04:46:54.545Z,105
2016-06-11T04:47:54.580Z,105
2016-06-11T04:48:54.583Z,100
2016-06-11T04:49:54.649Z,100
2016-06-11T04:50:54.714Z,95
2016-06-11T04:51:54.561Z,90
2016-06-11T04:52:54.751Z,85
2016-06-11T04:53:54.787Z,85
2016-06-11T04:54:54.836Z,85
2016-06-11T04:55:54.885Z,85
2016-06-11T04:56:54.904Z,90
2016-06-11T04:57:55.032Z,90
2016-06-11T04:58:55.083Z,95
2016-06-11T04:59:55.477Z,100
2016-06-11T05:00:56.119Z,105
2016-06-11T05:01:55.123Z,105
2016-06-11T05:02:55.204Z,110
2016-06-11T05:03:55.207Z,115
2016-06-11T05:04:55.085Z,120
2016-06-11T05:05:55.354Z,125
2016-06-11T05:06:55.357Z,135
2016-06-11T05:07:55.361Z,135
2016-06-11T05:08:55.410Z,135
2016-06-11T05:09:55.523Z,135
2016-06-11T05:10:55.494Z,130
2016-06-11T05:11:55.529Z,135
2016-06-11T05:12:55.626Z,135
2016-06-11T05:13:55.659Z,135
2016-06-11T05:14:55.663Z,135
2016-06-11T05:15:55.729Z,140
2016-06-11T05:16:55.763Z,145
2016-06-11T05:17:55.797Z,150
2016-06-11T05:18:55.831Z,160
2016-06-11T05:19:55.867Z,160
2016-06-11T05:20:55.963Z,170
2016-06-11T05:21:55.950Z,180
2016-06-11T05:22:56.000Z,185
2016-06-11T05:23:56.113Z,195
2016-06-11T05:24:56.131Z,200
2016-06-11T05:25:56.119Z,205
2016-06-11T05:26:56.185Z,210
2016-06-11T05:27:56.249Z,210
2016-06-11T05:28:56.284Z,210
2016-06-11T05:29:56.709Z,205
2016-06-11T05:30:57.118Z,205
2016-06-11T05:31:56.387Z,210
2016-06-11T05:32:56.406Z,200
2016-06-11T05:33:56.440Z,200
2016-06-11T05:34:56.584Z,195
2016-06-11T05:35:56.603Z,195
2016-06-11T05:36:56.574Z,185
2016-06-11T05:37:56.608Z,180
2016-06-11T05:38:56.690Z,175
2016-06-11T05:39:56.739Z,165
2016-06-11T05:40:56.742Z,165
2016-06-11T05:41:56.809Z,160
2016-06-11T05:42:56.921Z,165
2016-06-11T05:43:56.877Z,170
2016-06-11T05:44:57.099Z,175
2016-06-11T05:45:57.431Z,180
2016-06-11T05:46:57.011Z,185
2016-06-11T05:47:57.030Z,195
2016-06-11T05:48:57.080Z,200
2016-06-11T05:49:57.177Z,210
2016-06-11T05:50:57.148Z,215
2016-06-11T05:51:57.214Z,220
2016-06-11T05:52:57.296Z,235
2016-06-11T05:53:57.299Z,235
2016-06-11T05:54:57.364Z,245
2016-06-11T05:55:57.366Z,250
2016-06-11T05:56:57.498Z,255
2016-06-11T05:57:57.574Z,260
2016-06-11T05:58:57.617Z,260
2016-06-11T05:59:57.707Z,265
2016-06-11T06:00:57.674Z,265
2016-06-11T06:01:57.836Z,270
2016-06-11T06:02:57.744Z,270
2016-06-11T06:03:57.980Z,270
2016-06-11T06:04:58.045Z,275
2016-06-11T06:05:58.063Z,270
2016-06-11T06:06:58.120Z,270
2016-06-11T06:07:58.206Z,270
2016-06-11T06:08:58.231Z,265
2016-06-11T06:09:58.254Z,265
2016-06-11T06:10:58.373Z,260
2016-06-11T06:11:58.409Z,260
2016-06-11T06:12:58.398Z,255
2016-06-11T06:13:58.278Z,260
2016-06-11T06:14:58.533Z,260
2016-06-11T06:15:58.413Z,270
2016-06-11T06:16:58.573Z,275
2016-06-11T06:17:58.624Z,275
2016-06-11T06:18:58.674Z,285
2016-06-11T06:19:58.694Z,290
2016-06-11T06:20:58.745Z,295
2016-06-11T06:21:58.796Z,300
2016-06-11T06:22:58.877Z,300
2016-06-11T06:23:58.708Z,300
2016-06-11T06:24:58.929Z,305
2016-06-11T06:25:59.026Z,305
2016-06-11T06:26:58.998Z,310
2016-06-11T06:27:59.048Z,310
2016-06-11T06:28:59.113Z,315
2016-06-11T06:29:59.163Z,320
2016-06-11T06:30:59.416Z,320
2016-06-11T06:31:59.201Z,325
2016-06-11T06:32:59.298Z,325
2016-06-11T06:33:59.300Z,325
2016-06-11T06:34:59.397Z,325
2016-06-11T06:35:59.401Z,330
2016-06-11T06:36:59.529Z,330
2016-06-11T06:37:59.469Z,330
2016-06-11T06:38:59.504Z,330
2016-06-11T06:39:59.616Z,330
2016-06-11T06:40:59.604Z,330
2016-06-11T06:41:59.638Z,330
2016-06-11T06:42:59.673Z,330
2016-06-11T06:43:59.769Z,330
2016-06-11T06:44:59.772Z,330
2016-06-11T06:45:59.994Z,330
2016-06-11T06:46:59.873Z,330
2016-06-11T06:47:59.735Z,335
2016-06-11T06:48:59.940Z,340
2016-06-11T06:50:00.021Z,340
2016-06-11T06:51:00.119Z,350
2016-06-11T06:52:00.075Z,350
2016-06-11T06:52:59.952Z,355
2016-06-11T06:54:00.190Z,350
2016-06-11T06:55:00.209Z,350
2016-06-11T06:56:00.087Z,350
2016-06-11T06:57:00.309Z,355
2016-06-11T06:58:00.422Z,355
2016-06-11T06:59:00.377Z,355
2016-06-11T07:00:00.412Z,360
2016-06-11T07:01:00.634Z,365
2016-06-11T07:02:00.558Z,370
2016-06-11T07:03:00.547Z,370
2016-06-11T07:04:00.595Z,375
2016-06-11T07:05:00.662Z,380
2016-06-11T07:06:00.681Z,385
2016-06-11T07:07:00.715Z,390
2016-06-11T07:08:00.765Z,385
2016-06-11T07:09:00.861Z,390
2016-06-11T07:10:00.849Z,395
2016-06-11T07:11:00.883Z,395
2016-06-11T07:12:00.949Z,400
2016-06-11T07:13:01.030Z,405
2016-06-11T07:14:01.017Z,405
2016-06-11T07:15:01.084Z,405
2016-06-11T07:16:01.211Z,410
2016-06-11T07:17:01.151Z,410
2016-06-11T07:18:01.186Z,415
2016-06-11T07:19:01.252Z,420
2016-06-11T07:20:01.113Z,415
2016-06-11T07:21:01.164Z,420
2016-06-11T07:22:01.386Z,420
2016-06-11T07:23:01.420Z,425
2016-06-11T07:24:01.454Z,425
2016-06-11T07:25:01.504Z,425
2016-06-11T07:26:01.554Z,435
2016-06-11T07:27:01.448Z,430
2016-06-11T07:28:01.638Z,435
2016-06-11T07:29:01.517Z,440
2016-06-11T07:30:01.723Z,440
2016-06-11T07:31:01.975Z,445
2016-06-11T07:32:01.807Z,445
2016-06-11T07:33:01.934Z,450
2016-06-11T07:34:01.938Z,455
2016-06-11T07:35:01.941Z,455
2016-06-11T07:36:01.991Z,460
2016-06-11T07:37:02.104Z,465
2016-06-11T07:38:02.075Z,460
2016-06-11T07:39:02.110Z,465
2016-06-11T07:40:02.176Z,465
2016-06-11T07:41:02.209Z,465
2016-06-11T07:42:02.244Z,470
2016-06-11T07:43:02.310Z,470
2016-06-11T07:44:02.344Z,475
2016-06-11T07:45:02.378Z,475
2016-06-11T07:46:03.194Z,480
2016-06-11T07:47:02.494Z,480
2016-06-11T07:48:02.591Z,485
2016-06-11T07:49:02.547Z,490
2016-06-11T07:50:02.644Z,490
2016-06-11T07:51:02.662Z,495
2016-06-11T07:52:02.712Z,495
2016-06-11T07:53:02.746Z,500
2016-06-11T07:54:02.844Z,500
2016-06-11T07:55:02.863Z,500
2016-06-11T07:56:02.865Z,495
2016-06-11T07:57:02.915Z,505
2016-06-11T07:58:02.997Z,500
2016-06-11T07:59:03.015Z,505
2016-06-11T08:00:03.065Z,505
2016-06-11T08:01:03.709Z,505
2016-06-11T08:02:03.196Z,505
2016-06-11T08:03:03.168Z,505
2016-06-11T08:04:03.218Z,505
2016-06-11T08:05:03.315Z,510
2016-06-11T08:06:03.303Z,510
2016-06-11T08:07:03.211Z,510
2016-06-11T08:08:03.434Z,515
2016-06-11T08:09:03.545Z,515
2016-06-11T08:10:03.486Z,520
2016-06-11T08:11:03.551Z,525
2016-06-11T08:12:03.618Z,530
2016-06-11T08:13:03.668Z,535
2016-06-11T08:14:03.670Z,540
2016-06-11T08:15:03.736Z,540
2016-06-11T08:16:03.724Z,545
2016-06-11T08:17:03.820Z,545
2016-06-11T08:18:03.855Z,545
2016-06-11T08:19:03.968Z,535
2016-06-11T08:20:03.986Z,530
2016-06-11T08:21:03.989Z,525
2016-06-11T08:22:04.039Z,515
2016-06-11T08:23:04.121Z,510
2016-06-11T08:24:04.124Z,505
2016-06-11T08:25:04.174Z,505
2016-06-11T08:26:04.286Z,505
2016-06-11T08:27:04.273Z,515
2016-06-11T08:28:04.308Z,515
2016-06-11T08:29:04.389Z,520
2016-06-11T08:30:04.407Z,525
2016-06-11T08:31:05.863Z,535
2016-06-11T08:32:04.491Z,540
2016-06-11T08:33:04.588Z,545
2016-06-11T08:34:04.622Z,555
2016-06-11T08:35:04.625Z,560
2016-06-11T08:36:04.676Z,560
2016-06-11T08:37:04.742Z,565
2016-06-11T08:38:04.775Z,570
2016-06-11T08:39:04.825Z,575
2016-06-11T08:40:04.891Z,575
2016-06-11T08:41:04.926Z,585
2016-06-11T08:42:04.960Z,580
2016-06-11T08:43:04.979Z,590
2016-06-11T08:44:05.107Z,595
2016-06-11T08:45:05.125Z,595
2016-06-11T08:46:05.644Z,605
2016-06-11T08:47:05.319Z,595
2016-06-11T08:48:05.290Z,590
2016-06-11T08:49:05.247Z,585
2016-06-11T08:50:05.296Z,585
2016-06-11T08:51:05.378Z,580
2016-06-11T08:52:05.413Z,580
2016-06-11T08:53:05.431Z,585
2016-06-11T08:54:05.481Z,585
2016-06-11T08:55:05.547Z,585
2016-06-11T08:56:05.581Z,590
2016-06-11T08:57:05.631Z,595
2016-06-11T08:58:05.728Z,600
2016-06-11T08:59:05.778Z,605
2016-06-11T09:00:05.750Z,610
2016-06-11T09:01:07.690Z,615
2016-06-11T09:02:07.366Z,615
2016-06-11T09:03:07.993Z,625
2016-06-11T09:04:08.386Z,625
2016-06-11T09:05:08.577Z,625
2016-06-11T09:06:07.612Z,625
2016-06-11T09:07:08.553Z,630
2016-06-11T09:08:10.898Z,635
2016-06-11T09:09:07.480Z,640
2016-06-11T09:10:08.780Z,640
2016-06-11T09:11:08.815Z,645
2016-06-11T09:12:08.427Z,650
2016-06-11T09:13:08.664Z,655
2016-06-11T09:14:07.340Z,660
2016-06-11T09:15:08.639Z,670
2016-06-11T09:16:06.517Z,670
2016-06-11T09:17:06.395Z,675
2016-06-11T09:18:06.570Z,670
2016-06-11T09:19:06.949Z,675
2016-06-11T09:20:06.749Z,675
2016-06-11T09:21:06.767Z,675
2016-06-11T09:22:06.738Z,675
2016-06-11T09:23:06.836Z,680
2016-06-11T09:24:06.886Z,685
2016-06-11T09:25:06.920Z,680
2016-06-11T09:26:06.939Z,675
2016-06-11T09:27:06.990Z,665
2016-06-11T09:28:07.054Z,660
2016-06-11T09:29:07.074Z,660
2016-06-11T09:30:07.123Z,660
2016-06-11T09:31:07.048Z,670
2016-06-11T09:32:07.676Z,675
2016-06-11T09:33:07.117Z,680
2016-06-11T09:34:07.323Z,680
2016-06-11T09:35:08.060Z,680
2016-06-11T09:36:08.157Z,680
2016-06-11T09:37:08.238Z,695
2016-06-11T09:38:08.304Z,705
2016-06-11T09:39:08.291Z,710
2016-06-11T09:40:08.341Z,720
2016-06-11T09:41:08.017Z,725
2016-06-11T09:42:08.253Z,730
2016-06-11T09:43:09.663Z,735
2016-06-11T09:44:09.526Z,735
2016-06-11T09:45:07.685Z,735
2016-06-11T09:46:10.735Z,735
2016-06-11T09:47:09.926Z,735
2016-06-11T09:48:09.272Z,730
2016-06-11T09:49:08.806Z,735
2016-06-11T09:50:08.841Z,740
2016-06-11T09:51:08.828Z,745
2016-06-11T09:52:08.722Z,755
2016-06-11T09:53:08.865Z,760
2016-06-11T09:54:08.806Z,755
2016-06-11T09:55:09.090Z,765
2016-06-11T09:56:09.093Z,755
2016-06-11T09:57:09.159Z,760
2016-06-11T09:58:10.350Z,770
2016-06-11T09:59:09.369Z,775
2016-06-11T10:00:08.543Z,790
2016-06-11T10:01:08.577Z,805
2016-06-11T10:02:09.503Z,805
2016-06-11T10:03:08.662Z,800
2016-06-11T10:04:08.759Z,795
2016-06-11T10:05:08.762Z,795
2016-06-11T10:06:08.813Z,800
2016-06-11T10:07:08.940Z,795
2016-06-11T10:08:08.958Z,795
2016-06-11T10:09:08.961Z,795
2016-06-11T10:10:09.043Z,785
2016-06-11T10:11:09.062Z,785
2016-06-11T10:12:09.095Z,795
2016-06-11T10:13:09.130Z,795
2016-06-11T10:14:09.242Z,800
2016-06-11T10:15:09.308Z,795
2016-06-11T10:16:09.280Z,795
2016-06-11T10:17:10.268Z,810
2016-06-11T10:18:09.427Z,815
2016-06-11T10:19:09.430Z,815
2016-06-11T10:20:09.465Z,810
2016-06-11T10:21:09.514Z,815
2016-06-11T10:22:09.595Z,810
2016-06-11T10:23:09.614Z,820
2016-06-11T10:24:09.695Z,825
2016-06-11T10:25:09.729Z,830
2016-06-11T10:26:09.607Z,835
2016-06-11T10:27:09.783Z,840
2016-06-11T10:28:09.847Z,845
2016-06-11T10:29:09.961Z,845
2016-06-11T10:30:09.932Z,850
2016-06-11T10:31:10.732Z,855
2016-06-11T10:32:11.204Z,865
2016-06-11T10:33:10.145Z,870
2016-06-11T10:34:10.149Z,875
2016-06-11T10:35:10.213Z,880
2016-06-11T10:36:10.263Z,895
2016-06-11T10:37:10.267Z,910
2016-06-11T10:38:10.332Z,925
2016-06-11T10:39:10.397Z,940
2016-06-11T10:40:10.432Z,955
2016-06-11T10:41:10.497Z,960
2016-06-11T10:42:10.548Z,985
2016-06-11T10:43:10.581Z,1100
2016-06-11T10:44:10.601Z,1375
2016-06-11T10:45:10.666Z,1640
2016-06-11T10:46:11.435Z,1710
2016-06-11T10:47:11.375Z,1685
2016-06-11T10:48:10.800Z,1690
2016-06-11T10:49:10.882Z,1685
2016-06-11T10:50:10.978Z,1635
2016-06-11T10:51:10.951Z,1635
2016-06-11T10:52:11.000Z,1625
2016-06-11T10:53:11.066Z,1575
2016-06-11T10:54:11.177Z,1545
2016-06-11T10:55:11.181Z,1500
2016-06-11T10:56:11.200Z,1465
2016-06-11T10:57:11.328Z,1445
2016-06-11T10:58:11.315Z,1375
2016-06-11T10:59:11.365Z,1345
2016-06-11T11:00:11.431Z,1300
2016-06-11T11:01:11.481Z,1290
2016-06-11T11:02:12.671Z,1275
2016-06-11T11:03:11.566Z,1225
2016-06-11T11:04:11.505Z,1225
2016-06-11T11:05:11.680Z,1265
2016-06-11T11:06:11.715Z,1315
2016-06-11T11:07:11.764Z,1400
2016-06-11T11:08:11.878Z,1410
2016-06-11T11:09:11.865Z,1435
2016-06-11T11:10:11.899Z,1485
2016-06-11T11:11:12.011Z,1495
2016-06-11T11:12:12.046Z,1495
2016-06-11T11:13:12.065Z,1490
2016-06-11T11:14:12.130Z,1490
2016-06-11T11:15:12.180Z,1445
2016-06-11T11:16:12.214Z,1405
2016-06-11T11:17:12.124Z,1350
2016-06-11T11:18:12.361Z,1340
2016-06-11T11:19:12.396Z,1305
2016-06-11T11:20:12.462Z,1310
2016-06-11T11:21:12.465Z,1315
2016-06-11T11:22:12.530Z,1365
2016-06-11T11:23:12.596Z,1380
2016-06-11T11:24:12.614Z,1405
2016-06-11T11:25:12.727Z,1450
2016-06-11T11:26:12.761Z,1555
2016-06-11T11:27:12.764Z,1680
2016-06-11T11:28:12.814Z,1675
2016-06-11T11:29:12.910Z,1650
2016-06-11T11:30:12.930Z,970
2016-06-11T11:31:12.996Z,920
2016-06-11T11:32:13.827Z,915
2016-06-11T11:33:13.095Z,1520
2016-06-11T11:34:13.098Z,1590
2016-06-11T11:35:13.225Z,1635
2016-06-11T11:36:13.245Z,890
2016-06-11T11:37:13.279Z,1040
2016-06-11T11:38:13.344Z,1615
2016-06-11T11:39:13.395Z,1665
2016-06-11T11:40:13.492Z,1670
2016-06-11T11:41:13.479Z,1765
2016-06-11T11:42:13.529Z,1810
2016-06-11T11:43:13.642Z,1760
2016-06-11T11:44:13.613Z,1740
2016-06-11T11:45:13.694Z,1675
2016-06-11T11:46:13.807Z,1705
2016-06-11T11:47:14.700Z,1630
2016-06-11T11:48:13.829Z,1680
2016-06-11T11:49:13.894Z,1620
2016-06-11T11:50:13.974Z,1210
2016-06-11T11:51:13.994Z,990
2016-06-11T11:52:14.060Z,1780
2016-06-11T11:53:14.141Z,1395
2016-06-11T11:54:14.159Z,1360
2016-06-11T11:55:14.209Z,1815
2016-06-11T11:56:14.259Z,1890
2016-06-11T11:57:14.371Z,1265
2016-06-11T11:58:14.374Z,1175
2016-06-11T11:59:14.393Z,1355
2016-06-11T12:00:14.522Z,1570
2016-06-11T12:01:14.525Z,970
2016-06-11T12:02:14.419Z,865
2016-06-11T12:03:14.640Z,1605
2016-06-11T12:04:14.737Z,1665
2016-06-11T12:05:14.739Z,1610
2016-06-11T12:06:14.618Z,1455
2016-06-11T12:07:14.887Z,1675
2016-06-11T12:08:14.780Z,1505
2016-06-11T12:09:14.940Z,1785
2016-06-11T12:10:14.991Z,1690
2016-06-11T12:11:15.055Z,1375
2016-06-11T12:12:15.074Z,1385
2016-06-11T12:13:15.171Z,1525
2016-06-11T12:14:15.221Z,1125
2016-06-11T12:15:15.255Z,915
2016-06-11T12:16:15.290Z,765
2016-06-11T12:17:15.590Z,780
2016-06-11T12:18:15.405Z,770
2016-06-11T12:19:15.299Z,820
2016-06-11T12:20:15.567Z,1170
2016-06-11T12:21:15.602Z,1260
2016-06-11T12:22:15.620Z,1035
2016-06-11T12:23:15.686Z,905
2016-06-11T12:24:15.548Z,1075
2016-06-11T12:25:15.771Z,1200
2016-06-11T12:26:15.820Z,1115
2016-06-11T12:27:15.949Z,900
2016-06-11T12:28:15.952Z,885
2016-06-11T12:29:15.969Z,1285
2016-06-11T12:30:16.005Z,2035
2016-06-11T12:31:16.101Z,1120
2016-06-11T12:32:16.308Z,1775
2016-06-11T12:33:16.170Z,1320
2016-06-11T12:34:16.204Z,1005
2016-06-11T12:35:16.271Z,1480
2016-06-11T12:36:16.321Z,1465
2016-06-11T12:37:16.385Z,870
2016-06-11T12:38:16.263Z,1000
2016-06-11T12:39:16.469Z,1150
2016-06-11T12:40:16.520Z,1165
2016-06-11T12:41:16.601Z,1215
2016-06-11T12:42:16.464Z,1405
2016-06-11T12:43:16.701Z,1465
2016-06-11T12:44:16.735Z,915
2016-06-11T12:45:16.785Z,685
2016-06-11T12:46:16.819Z,630
2016-06-11T12:47:17.119Z,560
2016-06-11T12:48:16.982Z,495
2016-06-11T12:49:17.016Z,435
2016-06-11T12:50:17.020Z,400
2016-06-11T12:51:17.131Z,375
2016-06-11T12:52:17.198Z,360
2016-06-11T12:53:17.185Z,370
2016-06-11T12:54:17.235Z,365
2016-06-11T12:55:17.316Z,340
2016-06-11T12:56:17.350Z,320
2016-06-11T12:57:17.385Z,325
2016-06-11T12:58:17.481Z,330
2016-06-11T12:59:17.516Z,325
2016-06-11T13:00:17.395Z,320
2016-06-11T13:01:17.568Z,315
2016-06-11T13:02:17.962Z,310
2016-06-11T13:03:17.700Z,310
2016-06-11T13:04:17.562Z,310
2016-06-11T13:05:17.831Z,320
2016-06-11T13:06:17.677Z,325
2016-06-11T13:07:17.869Z,350
2016-06-11T13:08:17.919Z,360
2016-06-11T13:09:18.015Z,375
2016-06-11T13:10:18.018Z,390
2016-06-11T13:11:18.053Z,400
2016-06-11T13:12:18.118Z,405
2016-06-11T13:13:18.152Z,410
2016-06-11T13:14:18.202Z,425
2016-06-11T13:15:18.237Z,440
2016-06-11T13:16:18.364Z,460
2016-06-11T13:17:19.805Z,465
2016-06-11T13:18:18.495Z,465
2016-06-11T13:19:18.437Z,470
2016-06-11T13:20:18.393Z,475
2016-06-11T13:21:18.537Z,470
2016-06-11T13:22:18.618Z,455
2016-06-11T13:23:18.668Z,435
2016-06-11T13:24:18.733Z,425
2016-06-11T13:25:18.721Z,415
2016-06-11T13:26:18.755Z,415
2016-06-11T13:27:18.868Z,415
2016-06-11T13:28:18.855Z,425
2016-06-11T13:29:18.920Z,420
2016-06-11T13:30:18.954Z,400
2016-06-11T13:31:19.004Z,385
2016-06-11T13:32:19.914Z,375
2016-06-11T13:33:19.121Z,370
2016-06-11T13:34:19.139Z,360
2016-06-11T13:35:19.205Z,350
2016-06-11T13:36:19.239Z,335
2016-06-11T13:37:19.336Z,325
2016-06-11T13:38:19.386Z,320
2016-06-11T13:39:19.357Z,320
2016-06-11T13:40:19.438Z,310
2016-06-11T13:41:19.458Z,305
2016-06-11T13:42:19.538Z,285
2016-06-11T13:43:19.573Z,275
2016-06-11T13:44:19.592Z,265
2016-06-11T13:45:19.720Z,260
2016-06-11T13:46:19.706Z,255
2016-06-11T13:47:20.257Z,250
2016-06-11T13:48:19.667Z,250
2016-06-11T13:49:19.685Z,245
2016-06-11T13:50:19.876Z,245
2016-06-11T13:51:19.910Z,240
2016-06-11T13:52:20.007Z,240
2016-06-11T13:53:20.041Z,235
2016-06-11T13:54:20.044Z,235
2016-06-11T13:55:19.938Z,225
2016-06-11T13:56:19.988Z,215
2016-06-11T13:57:20.178Z,205
2016-06-11T13:58:20.243Z,190